createdAt,value
2022-10-05T00:00:26.708Z,5.10
2022-10-05T00:02:54.564Z,5.63
2022-10-05T00:05:21.133Z,5.30
2022-10-05T00:07:47.951Z,5.50
2022-10-05T00:10:17.466Z,5.50
2022-10-05T00:12:45.680Z,5.70
2022-10-05T00:15:13.438Z,5.32
2022-10-05T00:17:41.919Z,5.35
2022-10-05T00:20:20.250Z,5.28
2022-10-05T00:22:47.551Z,5.13
2022-10-05T00:25:21.184Z,4.93
2022-10-05T00:27:55.610Z,4.93
2022-10-05T00:30:23.287Z,5.18
2022-10-05T00:32:49.818Z,4.82
2022-10-05T00:35:18.545Z,4.82
2022-10-05T00:37:47.122Z,4.55
2022-10-05T00:40:21.026Z,4.40
2022-10-05T00:43:06.236Z,4.80
2022-10-05T00:45:43.166Z,5.03
2022-10-05T00:48:21.483Z,4.90
2022-10-05T00:50:57.102Z,4.38
2022-10-05T00:53:43.876Z,4.70
2022-10-05T00:56:19.233Z,4.55
2022-10-05T00:58:54.701Z,5.03
2022-10-05T01:01:38.816Z,4.82
2022-10-05T01:04:25.440Z,4.63
2022-10-05T01:07:15.853Z,4.90
2022-10-05T01:09:55.893Z,4.93
2022-10-05T01:12:48.125Z,5.20
2022-10-05T01:15:24.028Z,5.32
2022-10-05T01:18:10.803Z,5.15
2022-10-05T01:20:43.433Z,4.97
2022-10-05T01:23:39.347Z,5.43
2022-10-05T01:26:20.965Z,5.05
2022-10-05T01:28:58.543Z,5.35
2022-10-05T01:31:54.439Z,5.30
2022-10-05T01:34:38.563Z,5.20
2022-10-05T01:37:23.488Z,5.82
2022-10-05T01:39:55.032Z,5.60
2022-10-05T01:42:37.443Z,5.68
2022-10-05T01:45:06.785Z,5.68
2022-10-05T01:47:59.753Z,5.63
2022-10-05T01:50:57.912Z,5.75
2022-10-05T01:53:33.456Z,6.20
2022-10-05T01:56:18.907Z,6.60
2022-10-05T01:59:26.877Z,5.82
2022-10-05T02:02:01.812Z,6.63
2022-10-05T02:07:36.642Z,6.57
2022-10-05T02:10:12.576Z,6.13
2022-10-05T02:12:39.150Z,6.63
2022-10-05T02:15:14.552Z,6.05
2022-10-05T02:17:48.908Z,6.72
2022-10-05T02:20:24.744Z,6.93
2022-10-05T02:22:54.657Z,6.43
2022-10-05T02:25:29.480Z,6.35
2022-10-05T02:28:06.175Z,6.25
2022-10-05T02:30:38.963Z,6.63
2022-10-05T02:33:12.696Z,6.93
2022-10-05T02:35:39.376Z,6.22
2022-10-05T02:38:16.813Z,6.82
2022-10-05T02:40:48.901Z,6.45
2022-10-05T02:43:57.596Z,6.32
2022-10-05T02:46:28.877Z,6.55
2022-10-05T02:49:23.947Z,6.40
2022-10-05T02:51:56.285Z,6.03
2022-10-05T02:55:01.212Z,6.07
2022-10-05T02:57:37.409Z,6.22
2022-10-05T03:00:21.164Z,6.25
2022-10-05T03:02:52.663Z,6.45
2022-10-05T03:05:25.354Z,6.28
2022-10-05T03:08:02.853Z,5.82
2022-10-05T03:11:03.435Z,6.70
2022-10-05T03:13:50.752Z,6.35
2022-10-05T03:16:25.788Z,6.15
2022-10-05T03:19:12.400Z,6.40
2022-10-05T03:21:51.659Z,6.22
2022-10-05T03:24:32.961Z,6.05
2022-10-05T03:27:19.592Z,6.45
2022-10-05T03:30:11.288Z,6.50
2022-10-05T03:32:51.020Z,6.47
2022-10-05T03:35:40.802Z,6.95
2022-10-05T03:38:19.679Z,5.85
2022-10-05T03:41:14.275Z,5.35
2022-10-05T03:43:52.819Z,6.25
2022-10-05T03:46:51.375Z,5.97
2022-10-05T03:49:30.419Z,5.60
2022-10-05T03:52:12.580Z,5.90
2022-10-05T03:54:44.810Z,6.25
2022-10-05T03:57:21.765Z,5.80
2022-10-05T04:00:12.777Z,6.00
2022-10-05T04:02:49.257Z,5.95
2022-10-05T04:05:29.279Z,5.95
2022-10-05T04:08:10.085Z,5.53
2022-10-05T04:10:48.292Z,5.82
2022-10-05T04:13:29.422Z,5.50
2022-10-05T04:16:10.001Z,5.45
2022-10-05T04:18:36.439Z,5.40
2022-10-05T04:21:13.431Z,5.38
2022-10-05T04:23:48.881Z,5.05
2022-10-05T04:26:40.519Z,4.93
2022-10-05T04:29:34.732Z,5.10
2022-10-05T04:32:04.177Z,5.35
2022-10-05T04:34:56.544Z,5.45
2022-10-05T04:37:35.176Z,5.18
2022-10-05T04:40:22.827Z,4.93
2022-10-05T04:43:09.024Z,5.07
2022-10-05T04:46:17.305Z,5.57
2022-10-05T04:49:14.972Z,5.10
2022-10-05T04:52:26.737Z,5.32
2022-10-05T04:55:01.972Z,5.80
2022-10-05T04:57:46.252Z,5.20
2022-10-05T05:00:24.859Z,5.40
2022-10-05T05:03:12.763Z,5.25
2022-10-05T05:06:16.929Z,5.57
2022-10-05T05:11:42.922Z,5.18
2022-10-05T05:14:43.369Z,4.90
2022-10-05T05:17:45.218Z,4.45
2022-10-05T05:20:22.549Z,4.43
2022-10-05T05:22:59.601Z,4.22
2022-10-05T05:26:03.502Z,4.40
2022-10-05T05:28:42.398Z,3.42
2022-10-05T05:31:32.960Z,3.65
2022-10-05T05:33:59.800Z,3.50
2022-10-05T05:36:32.352Z,3.63
2022-10-05T05:39:23.706Z,3.63
2022-10-05T05:42:16.307Z,3.63
2022-10-05T05:47:35.453Z,3.55
2022-10-05T05:50:24.293Z,3.40
2022-10-05T05:52:55.589Z,3.88
2022-10-05T05:55:44.869Z,3.75
2022-10-05T05:58:25.494Z,4.07
2022-10-05T06:01:02.635Z,4.18
2022-10-05T06:03:39.259Z,4.00
2022-10-05T06:06:10.829Z,4.43
2022-10-05T06:08:45.195Z,4.38
2022-10-05T06:11:18.960Z,4.55
2022-10-05T06:13:47.711Z,4.32
2022-10-05T06:16:24.319Z,4.32
2022-10-05T06:19:13.108Z,5.00
2022-10-05T06:21:45.058Z,4.47
2022-10-05T06:24:49.957Z,4.57
2022-10-05T06:27:53.745Z,4.57
2022-10-05T06:30:20.328Z,4.57
2022-10-05T06:33:14.075Z,4.65
2022-10-05T06:35:58.972Z,5.20
2022-10-05T06:38:53.049Z,4.80
2022-10-05T06:41:36.755Z,4.78
2022-10-05T06:44:17.849Z,4.95
2022-10-05T06:47:04.540Z,4.93
2022-10-05T06:49:42.479Z,5.03
2022-10-05T06:52:29.779Z,5.00
2022-10-05T06:55:36.149Z,4.63
2022-10-05T06:58:27.811Z,4.72
2022-10-05T07:01:03.060Z,4.72
2022-10-05T07:03:56.896Z,4.57
2022-10-05T07:07:01.612Z,4.70
2022-10-05T07:12:48.250Z,4.47
2022-10-05T07:15:28.838Z,4.50
2022-10-05T07:18:10.614Z,4.50
2022-10-05T07:20:50.572Z,4.32
2022-10-05T07:23:38.326Z,4.40
2022-10-05T07:26:07.695Z,4.43
2022-10-05T07:28:46.251Z,3.95
2022-10-05T07:31:27.247Z,3.95
2022-10-05T07:34:09.721Z,4.22
2022-10-05T07:37:08.422Z,3.92
2022-10-05T07:40:00.255Z,4.13
2022-10-05T07:42:53.552Z,4.07
2022-10-05T07:45:37.919Z,3.97
2022-10-05T07:48:15.357Z,3.88
2022-10-05T07:51:04.593Z,3.72
2022-10-05T07:53:39.443Z,3.63
2022-10-05T07:56:21.344Z,4.03
2022-10-05T07:58:55.303Z,3.60
2022-10-05T08:01:27.815Z,3.70
2022-10-05T08:03:56.379Z,3.50
2022-10-05T08:06:38.208Z,3.80
2022-10-05T08:09:10.459Z,3.60
2022-10-05T08:11:55.720Z,3.38
2022-10-05T08:14:41.159Z,3.65
2022-10-05T08:17:25.464Z,3.60
2022-10-05T08:20:06.171Z,3.80
2022-10-05T08:22:44.354Z,3.95
2022-10-05T08:25:30.346Z,3.33
2022-10-05T08:28:05.257Z,3.53
2022-10-05T08:30:48.525Z,3.70
2022-10-05T08:33:18.385Z,3.95
2022-10-05T08:35:55.740Z,4.03
2022-10-05T08:38:31.864Z,3.75
2022-10-05T08:41:01.188Z,3.60
2022-10-05T08:44:06.237Z,4.00
2022-10-05T08:46:44.076Z,4.32
2022-10-05T08:49:49.225Z,4.35
2022-10-05T08:52:37.392Z,3.80
2022-10-05T08:55:09.983Z,4.15
2022-10-05T08:58:11.262Z,3.75
2022-10-05T09:01:01.645Z,3.58
2022-10-05T09:04:00.280Z,3.33
2022-10-05T09:09:36.377Z,3.50
2022-10-05T09:12:37.456Z,3.70
2022-10-05T09:15:28.693Z,3.58
2022-10-05T09:18:07.316Z,3.60
2022-10-05T09:20:53.998Z,3.50
2022-10-05T09:23:23.410Z,3.63
2022-10-05T09:26:26.934Z,3.15
2022-10-05T09:29:14.732Z,3.00
2022-10-05T09:32:12.918Z,3.13
2022-10-05T09:35:16.090Z,3.10
2022-10-05T09:38:13.851Z,3.28
2022-10-05T09:41:14.395Z,3.80
2022-10-05T09:43:59.203Z,3.90
2022-10-05T09:46:45.803Z,3.80
2022-10-05T09:49:19.778Z,3.58
2022-10-05T09:52:08.569Z,3.33
2022-10-05T09:55:20.168Z,3.25
2022-10-05T09:57:55.611Z,2.80
2022-10-05T10:00:58.826Z,2.80
2022-10-05T10:03:54.399Z,2.70
2022-10-05T10:06:49.089Z,2.60
2022-10-05T10:09:27.662Z,2.53
2022-10-05T10:12:18.542Z,2.90
2022-10-05T10:14:54.065Z,2.72
2022-10-05T10:17:43.618Z,2.63
2022-10-05T10:20:23.645Z,3.13
2022-10-05T10:23:08.942Z,2.88
2022-10-05T10:26:14.396Z,3.00
2022-10-05T10:32:18.317Z,2.78
2022-10-05T10:34:50.960Z,3.40
2022-10-05T10:37:58.459Z,2.92
2022-10-05T10:40:50.550Z,3.35
2022-10-05T10:43:27.205Z,3.10
2022-10-05T10:46:29.166Z,3.35
2022-10-05T10:49:32.821Z,3.10
2022-10-05T10:52:40.717Z,3.05
2022-10-05T10:55:39.007Z,3.25
2022-10-05T10:58:10.220Z,3.70
2022-10-05T11:01:01.690Z,3.45
2022-10-05T11:03:46.166Z,3.80
2022-10-05T11:06:17.205Z,3.88
2022-10-05T11:08:54.722Z,4.10
2022-10-05T11:11:58.614Z,3.72
2022-10-05T11:14:49.356Z,3.92
2022-10-05T11:17:29.374Z,4.00
2022-10-05T11:20:33.600Z,3.45
2022-10-05T11:23:02.983Z,3.78
2022-10-05T11:26:11.129Z,3.60
2022-10-05T11:28:48.947Z,3.20
2022-10-05T11:31:26.429Z,3.20
2022-10-05T11:34:27.048Z,3.50
2022-10-05T11:37:07.003Z,3.55
2022-10-05T11:39:42.446Z,3.70
2022-10-05T11:42:46.504Z,3.13
2022-10-05T11:45:54.424Z,3.25
2022-10-05T11:48:39.574Z,3.40
2022-10-05T11:51:14.980Z,3.00
2022-10-05T11:53:41.454Z,3.15
2022-10-05T11:56:23.914Z,2.92
2022-10-05T11:59:00.677Z,3.60
2022-10-05T12:01:57.277Z,3.28
2022-10-05T12:04:29.780Z,3.50
2022-10-05T12:07:17.559Z,3.50
2022-10-05T12:10:03.991Z,3.20
2022-10-05T12:12:54.401Z,3.30
2022-10-05T12:15:42.153Z,3.40
2022-10-05T12:18:17.882Z,3.60
2022-10-05T12:21:06.204Z,3.13
2022-10-05T12:23:54.865Z,3.22
2022-10-05T12:26:44.742Z,3.25
2022-10-05T12:29:26.195Z,3.60
2022-10-05T12:31:59.598Z,3.50
2022-10-05T12:34:40.091Z,2.90
2022-10-05T12:37:40.771Z,3.20
2022-10-05T12:40:38.077Z,3.20
2022-10-05T12:43:29.401Z,2.72
2022-10-05T12:46:08.259Z,3.00
2022-10-05T12:49:04.214Z,2.60
2022-10-05T12:51:39.952Z,2.70
2022-10-05T12:54:23.301Z,2.63
2022-10-05T12:56:54.785Z,2.60
2022-10-05T12:59:40.384Z,2.72
2022-10-05T13:02:25.075Z,2.75
2022-10-05T13:05:17.262Z,2.90
2022-10-05T13:08:01.835Z,2.88
2022-10-05T13:10:43.814Z,2.70
2022-10-05T13:13:45.458Z,3.10
2022-10-05T13:16:12.123Z,3.00
2022-10-05T13:18:49.952Z,3.38
2022-10-05T13:21:50.031Z,3.17
2022-10-05T13:24:24.757Z,3.25
2022-10-05T13:26:56.587Z,2.88
2022-10-05T13:29:43.392Z,2.78
2022-10-05T13:32:25.157Z,2.80
2022-10-05T13:34:51.583Z,2.63
2022-10-05T13:37:27.702Z,3.00
2022-10-05T13:40:23.329Z,2.70
2022-10-05T13:43:11.331Z,2.42
2022-10-05T13:45:40.846Z,2.72
2022-10-05T13:48:24.393Z,2.70
2022-10-05T13:51:34.475Z,2.78
2022-10-05T13:54:14.217Z,2.38
2022-10-05T13:56:48.488Z,2.60
2022-10-05T13:59:38.238Z,2.35
2022-10-05T14:02:09.371Z,2.65
2022-10-05T14:05:00.979Z,3.28
2022-10-05T14:07:38.537Z,3.10
2022-10-05T14:10:13.798Z,2.78
2022-10-05T14:12:43.581Z,2.50
2022-10-05T14:15:41.957Z,2.60
2022-10-05T14:18:30.843Z,2.53
2022-10-05T14:21:18.639Z,2.13
2022-10-05T14:23:45.500Z,2.53
2022-10-05T14:26:23.669Z,2.42
2022-10-05T14:28:59.910Z,2.40
2022-10-05T14:31:31.683Z,2.08
2022-10-05T14:34:29.196Z,2.10
2022-10-05T14:36:59.661Z,2.30
2022-10-05T14:39:27.893Z,2.63
2022-10-05T14:41:54.662Z,2.25
2022-10-05T14:47:11.842Z,2.25
2022-10-05T14:49:49.740Z,2.30
2022-10-05T14:52:51.641Z,2.10
2022-10-05T14:55:58.170Z,2.08
2022-10-05T14:58:44.963Z,1.92
2022-10-05T15:01:26.261Z,2.30
2022-10-05T15:04:16.790Z,2.03
2022-10-05T15:07:24.916Z,2.20
2022-10-05T15:10:07.325Z,1.90
2022-10-05T15:12:46.760Z,2.13
2022-10-05T15:15:27.050Z,2.17
2022-10-05T15:18:03.086Z,2.00
2022-10-05T15:20:43.338Z,2.08
2022-10-05T15:23:40.966Z,2.20
2022-10-05T15:26:15.034Z,2.00
2022-10-05T15:28:48.971Z,1.80
2022-10-05T15:31:27.679Z,2.15
2022-10-05T15:34:03.610Z,2.50
2022-10-05T15:36:41.481Z,2.30
2022-10-05T15:39:37.216Z,2.00
2022-10-05T15:42:09.947Z,2.20
2022-10-05T15:45:19.243Z,2.50
2022-10-05T15:48:20.178Z,2.25
2022-10-05T15:50:55.862Z,2.50
2022-10-05T15:53:52.358Z,2.08
2022-10-05T15:56:36.174Z,2.35
2022-10-05T15:59:19.228Z,2.33
2022-10-05T16:02:01.761Z,2.53
2022-10-05T16:05:15.944Z,2.47
2022-10-05T16:08:12.381Z,2.40
2022-10-05T16:10:44.121Z,3.05
2022-10-05T16:13:28.660Z,2.92
2022-10-05T16:16:16.932Z,2.42
2022-10-05T16:19:01.085Z,2.30
2022-10-05T16:21:45.822Z,1.83
2022-10-05T16:24:47.302Z,2.00
2022-10-05T16:27:55.360Z,2.00
2022-10-05T16:30:23.341Z,2.15
2022-10-05T16:35:53.582Z,2.20
2022-10-05T16:38:34.136Z,2.45
2022-10-05T16:41:32.576Z,2.28
2022-10-05T16:44:01.790Z,1.90
2022-10-05T16:46:37.443Z,2.58
2022-10-05T16:49:37.339Z,2.13
2022-10-05T16:52:07.081Z,2.05
2022-10-05T16:54:46.831Z,1.80
2022-10-05T16:57:22.216Z,2.00
2022-10-05T16:59:54.859Z,2.13
2022-10-05T17:02:56.802Z,2.13
2022-10-05T17:05:31.957Z,2.13
2022-10-05T17:08:27.744Z,2.28
2022-10-05T17:11:19.912Z,2.08
2022-10-05T17:14:30.823Z,2.17
2022-10-05T17:17:25.220Z,2.28
2022-10-05T17:20:13.107Z,2.40
2022-10-05T17:22:53.102Z,2.50
2022-10-05T17:25:42.708Z,2.60
2022-10-05T17:28:34.954Z,2.40
2022-10-05T17:31:14.857Z,2.40
2022-10-05T17:33:59.555Z,2.42
2022-10-05T17:36:43.773Z,2.38
2022-10-05T17:39:15.143Z,2.60
2022-10-05T17:41:42.320Z,2.30
2022-10-05T17:44:16.181Z,2.47
2022-10-05T17:46:45.980Z,2.40
2022-10-05T17:49:40.413Z,2.30
2022-10-05T17:52:45.080Z,2.70
2022-10-05T17:57:52.606Z,2.40
2022-10-05T18:00:34.268Z,2.50
2022-10-05T18:03:22.644Z,2.42
2022-10-05T18:06:22.027Z,2.40
2022-10-05T18:08:48.516Z,2.40
2022-10-05T18:11:36.744Z,2.45
2022-10-05T18:14:19.231Z,2.80
2022-10-05T18:16:59.396Z,2.47
2022-10-05T18:19:30.145Z,2.42
2022-10-05T18:22:03.514Z,2.42
2022-10-05T18:24:39.346Z,2.20
2022-10-05T18:27:31.763Z,2.40
2022-10-05T18:33:12.761Z,2.30
2022-10-05T18:35:58.149Z,2.35
2022-10-05T18:38:51.256Z,2.10
2022-10-05T18:41:40.425Z,2.45
2022-10-05T18:44:39.501Z,2.30
2022-10-05T18:47:13.792Z,2.58
2022-10-05T18:49:47.277Z,2.22
2022-10-05T18:52:31.920Z,2.63
2022-10-05T18:55:16.632Z,2.40
2022-10-05T18:57:54.109Z,2.70
2022-10-05T19:00:23.504Z,2.67
2022-10-05T19:03:23.562Z,2.60
2022-10-05T19:06:13.085Z,2.60
2022-10-05T19:09:11.385Z,2.60
2022-10-05T19:11:43.927Z,2.58
2022-10-05T19:14:34.845Z,2.47
2022-10-05T19:17:20.424Z,2.88
2022-10-05T19:20:08.877Z,2.70
2022-10-05T19:23:26.447Z,4.95
2022-10-05T19:26:08.374Z,2.60
2022-10-05T19:28:41.783Z,3.03
2022-10-05T19:31:11.375Z,2.70
2022-10-05T19:33:56.547Z,2.90
2022-10-05T19:36:44.908Z,2.80
2022-10-05T19:39:49.132Z,2.58
2022-10-05T19:42:25.021Z,3.40
2022-10-05T19:45:18.738Z,2.58
2022-10-05T19:47:54.431Z,3.67
2022-10-05T19:50:23.977Z,2.90
2022-10-05T19:52:57.241Z,2.03
2022-10-05T19:55:34.615Z,2.50
2022-10-05T19:58:01.315Z,1.30
2022-10-05T20:00:31.319Z,0.90
2022-10-05T20:03:14.365Z,1.00
2022-10-05T20:05:41.141Z,0.90
2022-10-05T20:08:14.375Z,0.70
2022-10-05T20:10:40.936Z,0.77
2022-10-05T20:13:20.891Z,0.80
2022-10-05T20:16:35.492Z,1.15
2022-10-05T20:19:21.781Z,1.20
2022-10-05T20:21:48.259Z,2.40
2022-10-05T20:24:25.410Z,0.80
2022-10-05T20:27:04.875Z,1.42
2022-10-05T20:29:42.704Z,0.70
2022-10-05T20:32:12.549Z,0.80
2022-10-05T20:34:44.707Z,0.60
2022-10-05T20:37:13.511Z,0.70
2022-10-05T20:39:41.121Z,0.88
2022-10-05T20:42:08.883Z,0.60
2022-10-05T20:44:36.063Z,1.20
2022-10-05T20:47:03.557Z,1.10
2022-10-05T20:49:35.102Z,0.70
2022-10-05T20:52:02.474Z,0.90
2022-10-05T20:54:29.829Z,0.80
2022-10-05T20:56:56.670Z,1.00
2022-10-05T20:59:24.657Z,0.80
2022-10-05T21:01:51.981Z,0.90
2022-10-05T21:04:24.015Z,0.90
2022-10-05T21:06:50.833Z,0.93
2022-10-05T21:09:19.313Z,0.80
2022-10-05T21:11:54.475Z,1.00
2022-10-05T21:14:21.144Z,0.70
2022-10-05T21:16:47.776Z,0.80
2022-10-05T21:19:14.748Z,0.70
2022-10-05T21:21:42.715Z,0.60
2022-10-05T21:24:11.228Z,0.50
2022-10-05T21:26:37.647Z,0.50
2022-10-05T21:29:06.857Z,0.47
2022-10-05T21:31:37.183Z,0.40
2022-10-05T21:34:04.372Z,0.50
2022-10-05T21:36:30.851Z,0.40
2022-10-05T21:38:57.445Z,0.50
2022-10-05T21:41:23.957Z,0.50
2022-10-05T21:43:50.550Z,0.70
2022-10-05T21:46:20.346Z,0.50
2022-10-05T21:48:48.221Z,0.70
2022-10-05T21:51:17.571Z,0.40
2022-10-05T21:53:51.639Z,0.40
2022-10-05T21:56:22.294Z,0.50
2022-10-05T21:58:50.097Z,0.60
2022-10-05T22:01:22.244Z,0.50
2022-10-05T22:03:49.208Z,0.50
2022-10-05T22:06:16.782Z,0.50
2022-10-05T22:08:43.495Z,0.50
2022-10-05T22:11:13.814Z,0.60
2022-10-05T22:13:46.111Z,0.40
2022-10-05T22:16:13.624Z,0.47
2022-10-05T22:18:40.560Z,0.60
2022-10-05T22:21:09.991Z,0.52
2022-10-05T22:23:36.550Z,0.50
2022-10-05T22:26:03.939Z,0.50
2022-10-05T22:28:32.604Z,0.70
2022-10-05T22:31:02.929Z,0.60
2022-10-05T22:33:29.777Z,0.60
2022-10-05T22:35:59.116Z,0.70
2022-10-05T22:38:26.249Z,0.82
2022-10-05T22:40:53.105Z,0.60
2022-10-05T22:43:19.662Z,0.80
2022-10-05T22:45:46.099Z,0.60
2022-10-05T22:48:12.850Z,0.80
2022-10-05T22:50:39.356Z,0.90
2022-10-05T22:53:06.001Z,0.73
2022-10-05T22:55:32.486Z,0.93
2022-10-05T22:57:58.946Z,0.90
2022-10-05T23:00:40.379Z,1.00
2022-10-05T23:03:12.814Z,0.70
2022-10-05T23:05:39.261Z,1.10
2022-10-05T23:08:05.722Z,0.95
2022-10-05T23:10:32.303Z,0.82
2022-10-05T23:13:00.958Z,1.02
2022-10-05T23:15:27.871Z,1.00
2022-10-05T23:17:56.150Z,0.90
2022-10-05T23:20:24.543Z,0.93
2022-10-05T23:22:51.044Z,0.93
2022-10-05T23:25:17.872Z,0.93
2022-10-05T23:27:44.435Z,0.80
2022-10-05T23:30:12.619Z,1.27
2022-10-05T23:35:08.163Z,0.90
2022-10-05T23:37:43.090Z,1.05
2022-10-05T23:40:13.961Z,1.10
2022-10-05T23:42:41.891Z,1.20
2022-10-05T23:45:10.127Z,1.42
2022-10-05T23:50:05.264Z,1.00
2022-10-05T23:52:31.791Z,1.15
2022-10-05T23:54:58.275Z,1.10
2022-10-05T23:57:25.036Z,1.10
2022-10-05T23:59:51.481Z,1.23
